sensor_id;sensor_type;location;lat;lon;timestamp;temperature;humidity
10336;DHT22;5213;53.548;9.930;2024-02-16T00:00:29;11.30;99.90
10336;DHT22;5213;53.548;9.930;2024-02-16T00:02:55;10.80;99.90
10336;DHT22;5213;53.548;9.930;2024-02-16T00:05:20;11.20;99.90
10336;DHT22;5213;53.548;9.930;2024-02-16T00:07:47;10.90;99.90
10336;DHT22;5213;53.548;9.930;2024-02-16T00:10:13;10.80;99.90
10336;DHT22;5213;53.548;9.930;2024-02-16T00:12:38;11.40;99.90
10336;DHT22;5213;53.548;9.930;2024-02-16T00:15:05;10.90;99.90
10336;DHT22;5213;53.548;9.930;2024-02-16T00:17:31;10.80;99.90
10336;DHT22;5213;53.548;9.930;2024-02-16T00:19:57;11.10;99.90
10336;DHT22;5213;53.548;9.930;2024-02-16T00:22:23;11.30;99.90
10336;DHT22;5213;53.548;9.930;2024-02-16T00:24:49;10.80;99.90
10336;DHT22;5213;53.548;9.930;2024-02-16T00:27:15;10.60;99.90
10336;DHT22;5213;53.548;9.930;2024-02-16T00:29:42;10.70;99.90
10336;DHT22;5213;53.548;9.930;2024-02-16T00:32:08;10.80;99.90
10336;DHT22;5213;53.548;9.930;2024-02-16T00:34:37;10.70;99.90
10336;DHT22;5213;53.548;9.930;2024-02-16T00:37:03;10.70;99.90
10336;DHT22;5213;53.548;9.930;2024-02-16T00:39:37;10.70;99.90
10336;DHT22;5213;53.548;9.930;2024-02-16T00:42:05;10.80;99.90
10336;DHT22;5213;53.548;9.930;2024-02-16T00:44:31;10.80;99.90
10336;DHT22;5213;53.548;9.930;2024-02-16T00:46:57;10.70;99.90
10336;DHT22;5213;53.548;9.930;2024-02-16T00:49:23;10.80;99.90
10336;DHT22;5213;53.548;9.930;2024-02-16T00:51:49;10.70;99.90
10336;DHT22;5213;53.548;9.930;2024-02-16T00:54:16;10.70;99.90
10336;DHT22;5213;53.548;9.930;2024-02-16T00:56:41;10.70;99.90
10336;DHT22;5213;53.548;9.930;2024-02-16T00:59:07;10.60;99.90
10336;DHT22;5213;53.548;9.930;2024-02-16T01:01:35;10.50;99.90
10336;DHT22;5213;53.548;9.930;2024-02-16T01:04:01;10.40;99.90
10336;DHT22;5213;53.548;9.930;2024-02-16T01:06:27;10.40;99.90
10336;DHT22;5213;53.548;9.930;2024-02-16T01:08:53;10.30;99.90
10336;DHT22;5213;53.548;9.930;2024-02-16T01:11:19;10.30;99.90
10336;DHT22;5213;53.548;9.930;2024-02-16T01:13:46;10.40;99.90
10336;DHT22;5213;53.548;9.930;2024-02-16T01:16:11;10.20;99.90
10336;DHT22;5213;53.548;9.930;2024-02-16T01:18:39;10.20;99.90
10336;DHT22;5213;53.548;9.930;2024-02-16T01:21:05;10.30;99.90
10336;DHT22;5213;53.548;9.930;2024-02-16T01:23:31;10.30;99.90
10336;DHT22;5213;53.548;9.930;2024-02-16T01:25:56;10.40;99.90
10336;DHT22;5213;53.548;9.930;2024-02-16T01:28:22;10.20;99.90
10336;DHT22;5213;53.548;9.930;2024-02-16T01:30:48;10.20;99.90
10336;DHT22;5213;53.548;9.930;2024-02-16T01:33:14;10.30;99.90
10336;DHT22;5213;53.548;9.930;2024-02-16T01:35:40;10.40;99.90
10336;DHT22;5213;53.548;9.930;2024-02-16T01:38:05;10.30;99.90
10336;DHT22;5213;53.548;9.930;2024-02-16T01:40:31;10.30;99.90
10336;DHT22;5213;53.548;9.930;2024-02-16T01:42:57;10.30;99.90
10336;DHT22;5213;53.548;9.930;2024-02-16T01:45:22;10.40;99.90
10336;DHT22;5213;53.548;9.930;2024-02-16T01:47:50;10.30;99.90
10336;DHT22;5213;53.548;9.930;2024-02-16T01:50:17;10.10;99.90
10336;DHT22;5213;53.548;9.930;2024-02-16T01:52:48;10.20;99.90
10336;DHT22;5213;53.548;9.930;2024-02-16T01:55:15;10.20;99.90
10336;DHT22;5213;53.548;9.930;2024-02-16T01:57:43;10.20;99.90
10336;DHT22;5213;53.548;9.930;2024-02-16T02:00:10;10.50;99.90
10336;DHT22;5213;53.548;9.930;2024-02-16T02:02:36;10.30;99.90
10336;DHT22;5213;53.548;9.930;2024-02-16T02:05:02;10.40;99.90
10336;DHT22;5213;53.548;9.930;2024-02-16T02:07:29;10.30;99.90
10336;DHT22;5213;53.548;9.930;2024-02-16T02:09:55;10.30;99.90
10336;DHT22;5213;53.548;9.930;2024-02-16T02:12:21;10.20;99.90
10336;DHT22;5213;53.548;9.930;2024-02-16T02:14:48;10.40;99.90
10336;DHT22;5213;53.548;9.930;2024-02-16T02:17:13;10.20;99.90
10336;DHT22;5213;53.548;9.930;2024-02-16T02:19:39;10.70;99.90
10336;DHT22;5213;53.548;9.930;2024-02-16T02:22:15;10.40;99.90
10336;DHT22;5213;53.548;9.930;2024-02-16T02:24:41;10.20;99.90
10336;DHT22;5213;53.548;9.930;2024-02-16T02:27:07;10.20;99.90
10336;DHT22;5213;53.548;9.930;2024-02-16T02:29:32;10.20;99.90
10336;DHT22;5213;53.548;9.930;2024-02-16T02:31:59;10.00;99.90
10336;DHT22;5213;53.548;9.930;2024-02-16T02:34:24;10.20;99.90
10336;DHT22;5213;53.548;9.930;2024-02-16T02:36:50;10.50;99.90
10336;DHT22;5213;53.548;9.930;2024-02-16T02:39:16;10.20;99.90
10336;DHT22;5213;53.548;9.930;2024-02-16T02:41:41;10.30;99.90
10336;DHT22;5213;53.548;9.930;2024-02-16T02:44:07;10.10;99.90
10336;DHT22;5213;53.548;9.930;2024-02-16T02:46:32;10.40;99.90
10336;DHT22;5213;53.548;9.930;2024-02-16T02:48:58;10.10;99.90
10336;DHT22;5213;53.548;9.930;2024-02-16T02:51:23;10.30;99.90
10336;DHT22;5213;53.548;9.930;2024-02-16T02:53:49;10.30;99.90
10336;DHT22;5213;53.548;9.930;2024-02-16T02:56:14;10.10;99.90
10336;DHT22;5213;53.548;9.930;2024-02-16T02:58:40;10.10;99.90
10336;DHT22;5213;53.548;9.930;2024-02-16T03:01:06;10.10;99.90
10336;DHT22;5213;53.548;9.930;2024-02-16T03:03:33;10.30;99.90
10336;DHT22;5213;53.548;9.930;2024-02-16T03:05:59;10.30;99.90
10336;DHT22;5213;53.548;9.930;2024-02-16T03:08:25;10.30;99.90
10336;DHT22;5213;53.548;9.930;2024-02-16T03:10:50;10.30;99.90
10336;DHT22;5213;53.548;9.930;2024-02-16T03:13:17;10.40;99.90
10336;DHT22;5213;53.548;9.930;2024-02-16T03:15:44;10.30;99.90
10336;DHT22;5213;53.548;9.930;2024-02-16T03:18:10;10.30;99.50
10336;DHT22;5213;53.548;9.930;2024-02-16T03:20:35;11.00;92.80
10336;DHT22;5213;53.548;9.930;2024-02-16T03:23:02;10.40;71.30
10336;DHT22;5213;53.548;9.930;2024-02-16T03:25:28;10.40;52.70
10336;DHT22;5213;53.548;9.930;2024-02-16T03:27:54;10.70;28.50
10336;DHT22;5213;53.548;9.930;2024-02-16T03:30:20;10.60;3.70
10336;DHT22;5213;53.548;9.930;2024-02-16T03:32:49;10.50;1.00
10336;DHT22;5213;53.548;9.930;2024-02-16T03:35:16;10.50;1.00
10336;DHT22;5213;53.548;9.930;2024-02-16T03:37:41;10.60;1.00
10336;DHT22;5213;53.548;9.930;2024-02-16T03:40:08;10.60;1.00
10336;DHT22;5213;53.548;9.930;2024-02-16T03:42:35;10.70;1.00
10336;DHT22;5213;53.548;9.930;2024-02-16T03:45:02;10.60;1.00
10336;DHT22;5213;53.548;9.930;2024-02-16T03:47:27;10.60;1.00
10336;DHT22;5213;53.548;9.930;2024-02-16T03:49:53;11.00;1.00
10336;DHT22;5213;53.548;9.930;2024-02-16T03:52:18;10.70;1.00
10336;DHT22;5213;53.548;9.930;2024-02-16T03:54:44;10.70;1.00
10336;DHT22;5213;53.548;9.930;2024-02-16T03:57:13;10.80;1.00
10336;DHT22;5213;53.548;9.930;2024-02-16T03:59:44;10.90;1.00
10336;DHT22;5213;53.548;9.930;2024-02-16T04:02:10;11.10;1.00
10336;DHT22;5213;53.548;9.930;2024-02-16T04:04:36;11.30;1.00
10336;DHT22;5213;53.548;9.930;2024-02-16T04:07:03;10.70;1.00
10336;DHT22;5213;53.548;9.930;2024-02-16T04:09:29;10.70;1.00
10336;DHT22;5213;53.548;9.930;2024-02-16T04:11:54;11.00;1.00
10336;DHT22;5213;53.548;9.930;2024-02-16T04:14:20;10.80;1.00
10336;DHT22;5213;53.548;9.930;2024-02-16T04:16:46;10.70;1.00
10336;DHT22;5213;53.548;9.930;2024-02-16T04:19:11;10.90;1.00
10336;DHT22;5213;53.548;9.930;2024-02-16T04:21:37;10.70;1.00
10336;DHT22;5213;53.548;9.930;2024-02-16T04:24:03;10.60;1.00
10336;DHT22;5213;53.548;9.930;2024-02-16T04:26:28;10.70;1.00
10336;DHT22;5213;53.548;9.930;2024-02-16T04:28:54;10.70;1.00
10336;DHT22;5213;53.548;9.930;2024-02-16T04:31:19;10.60;1.00
10336;DHT22;5213;53.548;9.930;2024-02-16T04:33:45;11.00;1.00
10336;DHT22;5213;53.548;9.930;2024-02-16T04:36:10;10.70;1.00
10336;DHT22;5213;53.548;9.930;2024-02-16T04:38:36;10.80;1.00
10336;DHT22;5213;53.548;9.930;2024-02-16T04:41:04;10.70;1.00
10336;DHT22;5213;53.548;9.930;2024-02-16T04:43:30;10.70;1.00
10336;DHT22;5213;53.548;9.930;2024-02-16T04:45:56;11.10;1.00
10336;DHT22;5213;53.548;9.930;2024-02-16T04:48:21;10.60;1.00
10336;DHT22;5213;53.548;9.930;2024-02-16T04:50:47;10.80;1.00
10336;DHT22;5213;53.548;9.930;2024-02-16T04:53:12;10.50;1.00
10336;DHT22;5213;53.548;9.930;2024-02-16T04:55:38;10.60;1.00
10336;DHT22;5213;53.548;9.930;2024-02-16T04:58:03;11.10;1.00
10336;DHT22;5213;53.548;9.930;2024-02-16T05:00:35;10.80;1.00
10336;DHT22;5213;53.548;9.930;2024-02-16T05:03:01;10.90;1.00
10336;DHT22;5213;53.548;9.930;2024-02-16T05:05:26;10.60;1.00
10336;DHT22;5213;53.548;9.930;2024-02-16T05:07:52;10.90;1.00
10336;DHT22;5213;53.548;9.930;2024-02-16T05:10:18;10.80;1.00
10336;DHT22;5213;53.548;9.930;2024-02-16T05:12:45;10.70;1.00
10336;DHT22;5213;53.548;9.930;2024-02-16T05:15:11;10.70;1.00
10336;DHT22;5213;53.548;9.930;2024-02-16T05:17:39;10.60;1.00
10336;DHT22;5213;53.548;9.930;2024-02-16T05:20:12;11.00;1.00
10336;DHT22;5213;53.548;9.930;2024-02-16T05:22:44;10.60;1.00
10336;DHT22;5213;53.548;9.930;2024-02-16T05:25:12;10.60;1.00
10336;DHT22;5213;53.548;9.930;2024-02-16T05:27:37;10.50;1.00
10336;DHT22;5213;53.548;9.930;2024-02-16T05:30:09;10.60;1.00
10336;DHT22;5213;53.548;9.930;2024-02-16T05:32:35;10.50;1.00
10336;DHT22;5213;53.548;9.930;2024-02-16T05:35:05;10.40;1.00
10336;DHT22;5213;53.548;9.930;2024-02-16T05:37:41;10.50;1.00
10336;DHT22;5213;53.548;9.930;2024-02-16T05:40:10;10.60;1.00
10336;DHT22;5213;53.548;9.930;2024-02-16T05:42:50;10.50;1.00
10336;DHT22;5213;53.548;9.930;2024-02-16T05:45:16;10.70;1.00
10336;DHT22;5213;53.548;9.930;2024-02-16T05:47:43;10.60;1.00
10336;DHT22;5213;53.548;9.930;2024-02-16T05:50:10;10.40;1.00
10336;DHT22;5213;53.548;9.930;2024-02-16T05:52:37;10.30;1.00
10336;DHT22;5213;53.548;9.930;2024-02-16T05:55:03;10.80;1.00
10336;DHT22;5213;53.548;9.930;2024-02-16T05:57:29;10.30;1.00
10336;DHT22;5213;53.548;9.930;2024-02-16T05:59:55;10.70;1.00
10336;DHT22;5213;53.548;9.930;2024-02-16T06:02:21;10.40;1.00
10336;DHT22;5213;53.548;9.930;2024-02-16T06:04:47;10.50;1.00
10336;DHT22;5213;53.548;9.930;2024-02-16T06:07:12;10.30;1.00
10336;DHT22;5213;53.548;9.930;2024-02-16T06:09:39;10.20;1.00
10336;DHT22;5213;53.548;9.930;2024-02-16T06:12:05;10.50;1.00
10336;DHT22;5213;53.548;9.930;2024-02-16T06:14:32;10.20;1.00
10336;DHT22;5213;53.548;9.930;2024-02-16T06:16:58;10.50;1.00
10336;DHT22;5213;53.548;9.930;2024-02-16T06:19:25;10.00;1.00
10336;DHT22;5213;53.548;9.930;2024-02-16T06:21:50;10.00;1.00
10336;DHT22;5213;53.548;9.930;2024-02-16T06:24:16;10.10;1.00
10336;DHT22;5213;53.548;9.930;2024-02-16T06:26:44;10.00;1.00
10336;DHT22;5213;53.548;9.930;2024-02-16T06:29:10;9.80;1.00
10336;DHT22;5213;53.548;9.930;2024-02-16T06:31:35;10.10;1.00
10336;DHT22;5213;53.548;9.930;2024-02-16T06:34:01;9.90;1.00
10336;DHT22;5213;53.548;9.930;2024-02-16T06:36:26;9.90;1.00
10336;DHT22;5213;53.548;9.930;2024-02-16T06:38:52;10.10;1.00
10336;DHT22;5213;53.548;9.930;2024-02-16T06:41:17;9.60;1.00
10336;DHT22;5213;53.548;9.930;2024-02-16T06:43:43;9.60;1.00
10336;DHT22;5213;53.548;9.930;2024-02-16T06:46:09;9.60;1.00
10336;DHT22;5213;53.548;9.930;2024-02-16T06:48:35;9.70;1.00
10336;DHT22;5213;53.548;9.930;2024-02-16T06:51:01;9.90;1.00
10336;DHT22;5213;53.548;9.930;2024-02-16T06:53:27;9.70;1.00
10336;DHT22;5213;53.548;9.930;2024-02-16T06:55:52;9.90;1.00
10336;DHT22;5213;53.548;9.930;2024-02-16T06:58:18;9.50;1.00
10336;DHT22;5213;53.548;9.930;2024-02-16T07:00:43;9.60;1.00
10336;DHT22;5213;53.548;9.930;2024-02-16T07:03:09;9.60;1.00
10336;DHT22;5213;53.548;9.930;2024-02-16T07:05:35;9.80;1.00
10336;DHT22;5213;53.548;9.930;2024-02-16T07:08:00;9.60;1.00
10336;DHT22;5213;53.548;9.930;2024-02-16T07:10:26;9.50;1.00
10336;DHT22;5213;53.548;9.930;2024-02-16T07:12:52;9.60;1.00
10336;DHT22;5213;53.548;9.930;2024-02-16T07:15:17;9.70;1.00
10336;DHT22;5213;53.548;9.930;2024-02-16T07:17:43;9.80;1.00
10336;DHT22;5213;53.548;9.930;2024-02-16T07:20:10;9.90;1.00
10336;DHT22;5213;53.548;9.930;2024-02-16T07:22:36;10.10;1.00
10336;DHT22;5213;53.548;9.930;2024-02-16T07:25:01;10.10;1.00
10336;DHT22;5213;53.548;9.930;2024-02-16T07:27:28;10.30;1.00
10336;DHT22;5213;53.548;9.930;2024-02-16T07:29:54;10.50;1.00
10336;DHT22;5213;53.548;9.930;2024-02-16T07:32:20;10.70;1.00
10336;DHT22;5213;53.548;9.930;2024-02-16T07:34:46;10.70;1.00
10336;DHT22;5213;53.548;9.930;2024-02-16T07:37:15;10.80;1.00
10336;DHT22;5213;53.548;9.930;2024-02-16T07:39:43;10.90;1.00
10336;DHT22;5213;53.548;9.930;2024-02-16T07:42:09;11.00;1.00
10336;DHT22;5213;53.548;9.930;2024-02-16T07:44:35;11.10;1.00
10336;DHT22;5213;53.548;9.930;2024-02-16T07:47:02;11.20;1.00
10336;DHT22;5213;53.548;9.930;2024-02-16T07:49:27;11.20;1.00
10336;DHT22;5213;53.548;9.930;2024-02-16T07:51:53;11.50;1.00
10336;DHT22;5213;53.548;9.930;2024-02-16T07:54:18;11.30;1.00
10336;DHT22;5213;53.548;9.930;2024-02-16T07:56:44;11.20;1.00
10336;DHT22;5213;53.548;9.930;2024-02-16T07:59:10;11.30;1.00
10336;DHT22;5213;53.548;9.930;2024-02-16T08:01:35;11.80;1.00
10336;DHT22;5213;53.548;9.930;2024-02-16T08:04:01;11.50;1.00
10336;DHT22;5213;53.548;9.930;2024-02-16T08:06:26;11.70;1.00
10336;DHT22;5213;53.548;9.930;2024-02-16T08:08:53;11.50;1.00
10336;DHT22;5213;53.548;9.930;2024-02-16T08:11:19;11.80;1.00
10336;DHT22;5213;53.548;9.930;2024-02-16T08:13:45;12.50;1.00
10336;DHT22;5213;53.548;9.930;2024-02-16T08:16:11;12.10;1.00
10336;DHT22;5213;53.548;9.930;2024-02-16T08:18:37;12.40;99.90
10336;DHT22;5213;53.548;9.930;2024-02-16T08:21:03;12.30;99.90
10336;DHT22;5213;53.548;9.930;2024-02-16T08:23:28;12.30;99.90
10336;DHT22;5213;53.548;9.930;2024-02-16T08:25:55;12.20;99.90
10336;DHT22;5213;53.548;9.930;2024-02-16T08:28:23;12.60;99.90
10336;DHT22;5213;53.548;9.930;2024-02-16T08:30:50;12.20;99.90
10336;DHT22;5213;53.548;9.930;2024-02-16T08:33:15;12.20;99.90
10336;DHT22;5213;53.548;9.930;2024-02-16T08:35:41;13.00;99.90
10336;DHT22;5213;53.548;9.930;2024-02-16T08:38:10;12.30;99.90
10336;DHT22;5213;53.548;9.930;2024-02-16T08:40:37;12.70;99.90
10336;DHT22;5213;53.548;9.930;2024-02-16T08:43:04;12.20;99.90
10336;DHT22;5213;53.548;9.930;2024-02-16T08:45:30;12.30;99.90
10336;DHT22;5213;53.548;9.930;2024-02-16T08:47:58;12.30;99.90
10336;DHT22;5213;53.548;9.930;2024-02-16T08:50:24;12.40;99.90
10336;DHT22;5213;53.548;9.930;2024-02-16T08:52:49;12.40;99.90
10336;DHT22;5213;53.548;9.930;2024-02-16T08:55:15;12.50;99.90
10336;DHT22;5213;53.548;9.930;2024-02-16T08:57:41;12.40;99.90
10336;DHT22;5213;53.548;9.930;2024-02-16T09:00:08;12.50;99.90
10336;DHT22;5213;53.548;9.930;2024-02-16T09:02:34;12.50;99.90
10336;DHT22;5213;53.548;9.930;2024-02-16T09:05:00;12.50;99.90
10336;DHT22;5213;53.548;9.930;2024-02-16T09:07:26;12.70;99.90
10336;DHT22;5213;53.548;9.930;2024-02-16T09:09:51;12.60;99.90
10336;DHT22;5213;53.548;9.930;2024-02-16T09:12:17;12.70;99.90
10336;DHT22;5213;53.548;9.930;2024-02-16T09:14:43;12.60;99.90
10336;DHT22;5213;53.548;9.930;2024-02-16T09:17:08;13.00;99.90
10336;DHT22;5213;53.548;9.930;2024-02-16T09:19:34;12.70;99.90
10336;DHT22;5213;53.548;9.930;2024-02-16T09:22:00;12.70;99.90
10336;DHT22;5213;53.548;9.930;2024-02-16T09:24:28;12.90;99.90
10336;DHT22;5213;53.548;9.930;2024-02-16T09:26:55;12.80;99.90
10336;DHT22;5213;53.548;9.930;2024-02-16T09:29:21;12.80;99.90
10336;DHT22;5213;53.548;9.930;2024-02-16T09:31:49;13.00;99.90
10336;DHT22;5213;53.548;9.930;2024-02-16T09:34:16;13.00;99.90
10336;DHT22;5213;53.548;9.930;2024-02-16T09:36:42;13.40;99.90
10336;DHT22;5213;53.548;9.930;2024-02-16T09:39:08;13.10;99.90
10336;DHT22;5213;53.548;9.930;2024-02-16T09:41:35;13.10;99.90
10336;DHT22;5213;53.548;9.930;2024-02-16T09:44:03;13.30;99.90
10336;DHT22;5213;53.548;9.930;2024-02-16T09:46:30;13.30;99.90
10336;DHT22;5213;53.548;9.930;2024-02-16T09:49:01;13.30;99.90
10336;DHT22;5213;53.548;9.930;2024-02-16T09:51:27;13.40;99.90
10336;DHT22;5213;53.548;9.930;2024-02-16T09:53:53;14.00;99.90
10336;DHT22;5213;53.548;9.930;2024-02-16T09:56:20;14.00;99.90
10336;DHT22;5213;53.548;9.930;2024-02-16T09:58:46;13.80;99.90
10336;DHT22;5213;53.548;9.930;2024-02-16T10:01:18;13.70;99.90
10336;DHT22;5213;53.548;9.930;2024-02-16T10:03:45;13.80;99.90
10336;DHT22;5213;53.548;9.930;2024-02-16T10:06:11;14.30;99.90
10336;DHT22;5213;53.548;9.930;2024-02-16T10:08:49;14.00;99.90
10336;DHT22;5213;53.548;9.930;2024-02-16T10:11:16;14.30;99.90
10336;DHT22;5213;53.548;9.930;2024-02-16T10:14:02;14.20;99.90
10336;DHT22;5213;53.548;9.930;2024-02-16T10:16:29;14.20;99.90
10336;DHT22;5213;53.548;9.930;2024-02-16T10:19:05;14.50;99.90
10336;DHT22;5213;53.548;9.930;2024-02-16T10:21:32;14.60;99.90
10336;DHT22;5213;53.548;9.930;2024-02-16T10:24:11;14.90;99.90
10336;DHT22;5213;53.548;9.930;2024-02-16T10:26:40;14.70;99.90
10336;DHT22;5213;53.548;9.930;2024-02-16T10:29:08;14.80;99.90
10336;DHT22;5213;53.548;9.930;2024-02-16T10:31:34;14.90;99.90
10336;DHT22;5213;53.548;9.930;2024-02-16T10:34:00;15.00;99.90
10336;DHT22;5213;53.548;9.930;2024-02-16T10:36:32;14.80;99.90
10336;DHT22;5213;53.548;9.930;2024-02-16T10:38:58;15.10;99.90
10336;DHT22;5213;53.548;9.930;2024-02-16T10:41:28;15.20;99.90
10336;DHT22;5213;53.548;9.930;2024-02-16T10:43:56;14.80;99.90
10336;DHT22;5213;53.548;9.930;2024-02-16T10:46:23;14.90;99.90
10336;DHT22;5213;53.548;9.930;2024-02-16T10:48:51;14.60;99.90
10336;DHT22;5213;53.548;9.930;2024-02-16T10:51:34;15.20;99.90
10336;DHT22;5213;53.548;9.930;2024-02-16T10:54:01;15.10;99.90
10336;DHT22;5213;53.548;9.930;2024-02-16T10:56:32;15.00;99.90
10336;DHT22;5213;53.548;9.930;2024-02-16T10:59:05;15.40;99.90
10336;DHT22;5213;53.548;9.930;2024-02-16T11:01:42;15.20;99.90
10336;DHT22;5213;53.548;9.930;2024-02-16T11:04:15;15.20;99.90
10336;DHT22;5213;53.548;9.930;2024-02-16T11:06:54;15.30;99.90
10336;DHT22;5213;53.548;9.930;2024-02-16T11:09:29;15.80;99.90
10336;DHT22;5213;53.548;9.930;2024-02-16T11:11:59;15.40;99.90
10336;DHT22;5213;53.548;9.930;2024-02-16T11:14:37;15.40;99.90
10336;DHT22;5213;53.548;9.930;2024-02-16T11:17:22;15.40;99.90
10336;DHT22;5213;53.548;9.930;2024-02-16T11:19:48;15.40;99.90
10336;DHT22;5213;53.548;9.930;2024-02-16T11:22:18;15.50;99.90
10336;DHT22;5213;53.548;9.930;2024-02-16T11:24:49;15.50;99.90
10336;DHT22;5213;53.548;9.930;2024-02-16T11:27:16;15.60;99.90
10336;DHT22;5213;53.548;9.930;2024-02-16T11:29:44;15.50;99.90
10336;DHT22;5213;53.548;9.930;2024-02-16T11:32:10;15.50;99.90
10336;DHT22;5213;53.548;9.930;2024-02-16T11:34:36;15.70;99.90
10336;DHT22;5213;53.548;9.930;2024-02-16T11:37:05;15.50;99.90
10336;DHT22;5213;53.548;9.930;2024-02-16T11:39:31;15.70;99.90
10336;DHT22;5213;53.548;9.930;2024-02-16T11:42:03;15.40;99.90
10336;DHT22;5213;53.548;9.930;2024-02-16T11:44:37;15.30;99.90
10336;DHT22;5213;53.548;9.930;2024-02-16T11:47:06;15.20;99.90
10336;DHT22;5213;53.548;9.930;2024-02-16T11:49:40;15.30;99.90
10336;DHT22;5213;53.548;9.930;2024-02-16T11:52:07;15.20;99.90
10336;DHT22;5213;53.548;9.930;2024-02-16T11:54:33;15.40;99.90
10336;DHT22;5213;53.548;9.930;2024-02-16T11:56:59;15.60;99.90
10336;DHT22;5213;53.548;9.930;2024-02-16T11:59:25;15.50;99.90
10336;DHT22;5213;53.548;9.930;2024-02-16T12:01:54;15.70;99.90
10336;DHT22;5213;53.548;9.930;2024-02-16T12:04:25;15.80;99.90
10336;DHT22;5213;53.548;9.930;2024-02-16T12:06:59;15.70;99.90
10336;DHT22;5213;53.548;9.930;2024-02-16T12:09:25;15.70;99.90
10336;DHT22;5213;53.548;9.930;2024-02-16T12:11:52;15.60;99.90
10336;DHT22;5213;53.548;9.930;2024-02-16T12:14:20;15.50;99.90
10336;DHT22;5213;53.548;9.930;2024-02-16T12:16:50;15.50;99.90
10336;DHT22;5213;53.548;9.930;2024-02-16T12:19:18;15.50;99.90
10336;DHT22;5213;53.548;9.930;2024-02-16T12:21:49;15.50;99.90
10336;DHT22;5213;53.548;9.930;2024-02-16T12:24:15;15.60;99.90
10336;DHT22;5213;53.548;9.930;2024-02-16T12:26:40;15.50;99.90
10336;DHT22;5213;53.548;9.930;2024-02-16T12:29:06;15.50;99.90
10336;DHT22;5213;53.548;9.930;2024-02-16T12:31:32;15.70;99.90
10336;DHT22;5213;53.548;9.930;2024-02-16T12:33:58;15.50;99.90
10336;DHT22;5213;53.548;9.930;2024-02-16T12:36:23;15.60;99.90
10336;DHT22;5213;53.548;9.930;2024-02-16T12:38:49;15.60;99.90
10336;DHT22;5213;53.548;9.930;2024-02-16T12:41:15;15.60;99.90
10336;DHT22;5213;53.548;9.930;2024-02-16T12:43:44;15.70;99.90
10336;DHT22;5213;53.548;9.930;2024-02-16T12:46:09;15.70;99.90
10336;DHT22;5213;53.548;9.930;2024-02-16T12:48:35;15.70;99.90
10336;DHT22;5213;53.548;9.930;2024-02-16T12:51:00;15.30;99.90
10336;DHT22;5213;53.548;9.930;2024-02-16T12:53:26;15.60;99.90
10336;DHT22;5213;53.548;9.930;2024-02-16T12:55:54;15.40;99.90
10336;DHT22;5213;53.548;9.930;2024-02-16T12:58:20;15.20;99.90
10336;DHT22;5213;53.548;9.930;2024-02-16T13:00:46;15.20;99.90
10336;DHT22;5213;53.548;9.930;2024-02-16T13:03:11;15.60;99.90
10336;DHT22;5213;53.548;9.930;2024-02-16T13:05:37;15.60;99.90
10336;DHT22;5213;53.548;9.930;2024-02-16T13:08:04;15.40;99.90
10336;DHT22;5213;53.548;9.930;2024-02-16T13:10:30;15.20;99.90
10336;DHT22;5213;53.548;9.930;2024-02-16T13:12:55;15.20;99.90
10336;DHT22;5213;53.548;9.930;2024-02-16T13:15:23;15.20;99.90
10336;DHT22;5213;53.548;9.930;2024-02-16T13:17:49;15.20;99.90
10336;DHT22;5213;53.548;9.930;2024-02-16T13:20:15;15.70;99.90
10336;DHT22;5213;53.548;9.930;2024-02-16T13:22:40;15.30;99.90
10336;DHT22;5213;53.548;9.930;2024-02-16T13:25:07;15.10;99.90
10336;DHT22;5213;53.548;9.930;2024-02-16T13:27:33;15.20;99.90
10336;DHT22;5213;53.548;9.930;2024-02-16T13:30:02;15.40;99.90
10336;DHT22;5213;53.548;9.930;2024-02-16T13:32:29;15.20;99.90
10336;DHT22;5213;53.548;9.930;2024-02-16T13:34:55;15.20;99.90
10336;DHT22;5213;53.548;9.930;2024-02-16T13:37:20;15.10;99.90
10336;DHT22;5213;53.548;9.930;2024-02-16T13:39:46;15.10;99.90
10336;DHT22;5213;53.548;9.930;2024-02-16T13:42:12;15.20;99.90
10336;DHT22;5213;53.548;9.930;2024-02-16T13:44:39;15.00;99.90
10336;DHT22;5213;53.548;9.930;2024-02-16T13:47:04;15.00;99.90
10336;DHT22;5213;53.548;9.930;2024-02-16T13:49:30;14.80;99.90
10336;DHT22;5213;53.548;9.930;2024-02-16T13:51:56;14.80;99.90
10336;DHT22;5213;53.548;9.930;2024-02-16T13:54:24;14.90;99.90
10336;DHT22;5213;53.548;9.930;2024-02-16T13:56:50;14.90;99.90
10336;DHT22;5213;53.548;9.930;2024-02-16T13:59:16;15.40;99.90
10336;DHT22;5213;53.548;9.930;2024-02-16T14:01:41;14.90;99.90
10336;DHT22;5213;53.548;9.930;2024-02-16T14:04:08;15.30;99.90
10336;DHT22;5213;53.548;9.930;2024-02-16T14:06:33;14.90;99.90
10336;DHT22;5213;53.548;9.930;2024-02-16T14:09:01;14.90;99.90
10336;DHT22;5213;53.548;9.930;2024-02-16T14:11:26;14.90;99.90
10336;DHT22;5213;53.548;9.930;2024-02-16T14:13:52;15.10;99.90
10336;DHT22;5213;53.548;9.930;2024-02-16T14:16:18;15.20;99.90
10336;DHT22;5213;53.548;9.930;2024-02-16T14:18:43;15.30;99.90
10336;DHT22;5213;53.548;9.930;2024-02-16T14:21:09;15.30;99.90
10336;DHT22;5213;53.548;9.930;2024-02-16T14:23:35;15.00;99.90
10336;DHT22;5213;53.548;9.930;2024-02-16T14:26:01;14.90;99.90
10336;DHT22;5213;53.548;9.930;2024-02-16T14:28:27;14.90;99.90
10336;DHT22;5213;53.548;9.930;2024-02-16T14:30:52;14.60;99.90
10336;DHT22;5213;53.548;9.930;2024-02-16T14:33:22;14.60;99.90
10336;DHT22;5213;53.548;9.930;2024-02-16T14:35:47;14.60;99.90
10336;DHT22;5213;53.548;9.930;2024-02-16T14:38:15;14.40;99.90
10336;DHT22;5213;53.548;9.930;2024-02-16T14:40:40;14.40;99.90
10336;DHT22;5213;53.548;9.930;2024-02-16T14:43:06;14.40;99.90
10336;DHT22;5213;53.548;9.930;2024-02-16T14:45:32;14.70;99.90
10336;DHT22;5213;53.548;9.930;2024-02-16T14:47:58;14.20;99.90
10336;DHT22;5213;53.548;9.930;2024-02-16T14:50:24;14.50;99.90
10336;DHT22;5213;53.548;9.930;2024-02-16T14:52:50;14.30;99.90
10336;DHT22;5213;53.548;9.930;2024-02-16T14:55:16;14.20;99.90
10336;DHT22;5213;53.548;9.930;2024-02-16T14:57:42;13.90;99.90
10336;DHT22;5213;53.548;9.930;2024-02-16T15:00:09;14.40;99.90
10336;DHT22;5213;53.548;9.930;2024-02-16T15:02:34;13.80;99.90
10336;DHT22;5213;53.548;9.930;2024-02-16T15:05:02;13.70;99.90
10336;DHT22;5213;53.548;9.930;2024-02-16T15:07:27;13.80;99.90
10336;DHT22;5213;53.548;9.930;2024-02-16T15:09:53;14.10;99.90
10336;DHT22;5213;53.548;9.930;2024-02-16T15:12:18;13.70;99.90
10336;DHT22;5213;53.548;9.930;2024-02-16T15:14:48;13.70;99.90
10336;DHT22;5213;53.548;9.930;2024-02-16T15:17:14;13.70;1.00
10336;DHT22;5213;53.548;9.930;2024-02-16T15:19:41;13.50;1.00
10336;DHT22;5213;53.548;9.930;2024-02-16T15:22:07;13.60;1.00
10336;DHT22;5213;53.548;9.930;2024-02-16T15:24:33;13.40;1.00
10336;DHT22;5213;53.548;9.930;2024-02-16T15:26:59;13.40;1.00
10336;DHT22;5213;53.548;9.930;2024-02-16T15:29:24;13.40;1.00
10336;DHT22;5213;53.548;9.930;2024-02-16T15:31:50;13.30;1.00
10336;DHT22;5213;53.548;9.930;2024-02-16T15:34:17;13.30;1.00
10336;DHT22;5213;53.548;9.930;2024-02-16T15:36:42;13.60;1.00
10336;DHT22;5213;53.548;9.930;2024-02-16T15:39:08;13.70;1.00
10336;DHT22;5213;53.548;9.930;2024-02-16T15:41:35;13.60;1.00
10336;DHT22;5213;53.548;9.930;2024-02-16T15:44:01;13.10;1.00
10336;DHT22;5213;53.548;9.930;2024-02-16T15:46:28;13.50;1.00
10336;DHT22;5213;53.548;9.930;2024-02-16T15:48:53;13.10;1.00